»·PEaware :: APW8268 TGPY-KONT

APW8268 :: TGPY-KONT

FLIGHT INFORMATION

Flight Status: Arrived
Operator:
Arrow Cargo
More flights by this operator :: More flights under this callsign
Pilot: Alan J. (5709)
Aircraft: LOCKHEED L-1011 TRI-STAR
(L101)
More flights by this aircraft type
Origin: TGPY Point Salines Intl
Grenada
Destination: KONT Ontario Intl
United States
More flights between these airports :: More routes between these airports
Route: +PERRY EDMAX BODLO ZIN ZBV FLL KUBIC SRQ LEV ELP TFD KOFFA J65 DECAS J212 PSP SETER3
File this flight plan on PilotEdge
Remarks:
Altitude:
(Current/Filed)
34,000ft
Speed:
(Current/Filed)
490kts
Departed: 19-Jun-16 07:45 AM
Arrived: 19-Jun-16 09:20 AM
Distance/Time
Traveled:
3307nm/1:35
Distance/Time
To Go:
Arrived

Flight Plot

Page will automatically refresh every two minutes.


Map Options




Map Legend


Flown Route
Filed Route
Departure Airport
Arrival Airport
Navaid (VOR, NDB)
Fix

Horizontal Profiles

Position Reports

Time Latitude Longitude Heading Altitude Ground
Speed
19-Jun-16 07:19 12.005715 -61.786375 0 57ft 0kts
19-Jun-16 07:20 12.005715 -61.786375 0 57ft 0kts
19-Jun-16 07:21 12.005715 -61.786375 0 57ft 0kts
19-Jun-16 07:22 12.005715 -61.786375 0 57ft 0kts
19-Jun-16 07:23 12.005715 -61.786375 0 57ft 0kts
19-Jun-16 07:24 12.005715 -61.786375 0 57ft 0kts
19-Jun-16 07:25 12.005715 -61.786375 0 57ft 0kts
19-Jun-16 07:26 12.005715 -61.786375 0 57ft 0kts
19-Jun-16 07:27 12.005715 -61.786375 0 57ft 0kts
19-Jun-16 07:28 12.005715 -61.786375 0 57ft 0kts
19-Jun-16 07:29 12.005715 -61.786375 0 57ft 0kts
19-Jun-16 07:30 12.005715 -61.786375 0 57ft 0kts
19-Jun-16 07:31 12.005715 -61.786375 0 57ft 0kts
19-Jun-16 07:32 12.005715 -61.786375 0 57ft 0kts
19-Jun-16 07:33 12.005715 -61.786375 0 57ft 0kts
19-Jun-16 07:34 12.005715 -61.786375 0 57ft 0kts
19-Jun-16 07:35 12.005715 -61.786375 0 57ft 0kts
19-Jun-16 07:36 12.005715 -61.786375 0 57ft 0kts
19-Jun-16 07:37 12.005715 -61.786375 0 57ft 0kts
19-Jun-16 07:38 12.005900 -61.785927 121 57ft 5kts
19-Jun-16 07:39 12.004087 -61.788204 270 57ft 28kts
19-Jun-16 07:40 12.004165 -61.797705 289 57ft 11kts
19-Jun-16 07:41 12.004205 -61.798225 95 57ft 0kts
19-Jun-16 07:42 12.004056 -61.781567 90 172ft 143kts
19-Jun-16 07:43 12.010750 -61.738215 73 2136ft 170kts
19-Jun-16 07:44 12.063153 -61.720635 339 3822ft 254kts
19-Jun-16 07:45 12.110410 -61.780005 300 6818ft 287kts
19-Jun-16 07:46 12.158648 -61.848184 317 9614ft 307kts
19-Jun-16 07:47 12.224596 -61.917864 311 11312ft 380kts
19-Jun-16 07:48 12.301152 -62.002646 313 14492ft 427kts
19-Jun-16 07:49 12.383630 -62.094730 313 17552ft 443kts
19-Jun-16 07:50 12.466942 -62.188462 313 20549ft 443kts
19-Jun-16 07:51 12.549342 -62.280581 313 23305ft 435kts
19-Jun-16 07:52 12.632347 -62.373360 312 25024ft 445kts
19-Jun-16 07:53 12.716703 -62.468229 312 26552ft 453kts
19-Jun-16 07:54 12.802649 -62.564292 311 27834ft 460kts
19-Jun-16 07:55 12.875313 -62.646089 311 28678ft 468kts
19-Jun-16 07:56 12.978572 -62.761864 311 29850ft 473kts
19-Jun-16 07:57 13.052527 -62.845391 310 30684ft 473kts
19-Jun-16 07:58 13.141093 -62.945339 310 31679ft 471kts
19-Jun-16 07:59 13.229004 -63.044122 310 32667ft 467kts
19-Jun-16 08:00 13.284547 -63.160656 287 33654ft 453kts
19-Jun-16 08:01 13.328840 -63.283095 287 33978ft 461kts
19-Jun-16 08:02 13.373428 -63.408027 287 34105ft 470kts
19-Jun-16 08:03 13.418770 -63.535373 287 34094ft 477kts
19-Jun-16 08:04 13.465024 -63.664962 287 34095ft 484kts
19-Jun-16 08:05 13.511679 -63.795105 287 34095ft 487kts
19-Jun-16 08:06 13.907760 -64.921302 289 34037ft 485kts
19-Jun-16 08:07 13.995034 -65.026945 315 34113ft 493kts
19-Jun-16 08:08 20.436177 -73.043280 309 34119ft 490kts
19-Jun-16 08:09 20.525334 -73.151877 311 34131ft 483kts
19-Jun-16 08:10 20.614750 -73.259412 311 34134ft 483kts
19-Jun-16 08:11 20.703891 -73.367261 311 34136ft 483kts
19-Jun-16 08:12 20.793016 -73.475294 311 34135ft 483kts
19-Jun-16 08:13 20.882029 -73.583374 311 34137ft 483kts
19-Jun-16 08:14 25.702843 -79.293511 312 33999ft 483kts
19-Jun-16 08:15 25.766761 -79.422466 290 34176ft 483kts
19-Jun-16 08:16 25.818155 -79.560592 296 34180ft 483kts
19-Jun-16 08:17 25.875210 -79.696121 296 34183ft 483kts
19-Jun-16 08:18 25.932528 -79.831627 296 34186ft 484kts
19-Jun-16 08:19 25.989640 -79.967393 296 34189ft 484kts
19-Jun-16 08:20 26.046947 -80.102972 296 34192ft 484kts
19-Jun-16 08:21 26.076521 -80.247621 271 34203ft 489kts
19-Jun-16 08:22 26.081059 -80.399398 273 34200ft 490kts
19-Jun-16 08:23 26.086010 -80.551359 273 34193ft 490kts
19-Jun-16 08:24 26.090700 -80.703359 273 34192ft 491kts
19-Jun-16 08:25 26.095212 -80.855581 273 34194ft 491kts
19-Jun-16 08:26 26.137421 -80.996755 308 34190ft 485kts
19-Jun-16 08:27 27.425252 -82.594036 306 34140ft 483kts
19-Jun-16 08:28 27.461657 -82.741219 282 34202ft 497kts
19-Jun-16 08:29 29.199387 -90.219063 287 34249ft 504kts
19-Jun-16 08:30 31.819552 -106.320255 289 34178ft 504kts
19-Jun-16 08:31 32.880770 -111.913386 287 33999ft 511kts
19-Jun-16 08:32 32.941651 -112.060738 300 34023ft 488kts
19-Jun-16 08:33 33.005854 -112.203265 294 33996ft 490kts
19-Jun-16 08:34 33.065247 -112.349906 294 33981ft 490kts
19-Jun-16 08:35 33.124400 -112.496797 293 33987ft 490kts
19-Jun-16 08:36 33.183660 -112.643598 293 33987ft 490kts
19-Jun-16 08:37 33.242443 -112.790636 293 33987ft 489kts
19-Jun-16 08:38 33.300953 -112.937909 293 33986ft 489kts
19-Jun-16 08:39 33.359360 -113.085069 293 33984ft 489kts
19-Jun-16 08:40 33.417738 -113.232385 292 33981ft 488kts
19-Jun-16 08:41 33.467909 -113.382856 275 33977ft 485kts
19-Jun-16 08:42 33.482292 -113.542944 274 33968ft 481kts
19-Jun-16 08:43 33.498327 -113.701866 274 33966ft 481kts
19-Jun-16 08:44 33.513518 -113.861143 273 33963ft 480kts
19-Jun-16 08:45 33.528539 -114.020414 273 33961ft 480kts
19-Jun-16 08:46 33.540779 -114.153302 273 33976ft 480kts
19-Jun-16 08:47 33.557884 -114.339162 273 33971ft 480kts
19-Jun-16 08:48 33.570192 -114.472058 273 33965ft 480kts
19-Jun-16 08:49 33.587047 -114.657998 273 33965ft 480kts
19-Jun-16 08:50 33.603863 -114.789437 287 33963ft 482kts
19-Jun-16 08:51 33.655514 -114.939419 287 33969ft 486kts
19-Jun-16 08:52 33.704555 -115.090889 287 33977ft 485kts
19-Jun-16 08:53 33.753801 -115.242209 287 33988ft 485kts
19-Jun-16 08:54 33.803040 -115.393154 287 32796ft 480kts
19-Jun-16 08:55 33.827935 -115.545174 268 30102ft 455kts
19-Jun-16 08:56 33.835389 -115.694483 270 27398ft 438kts
19-Jun-16 08:57 33.842832 -115.837947 269 24695ft 420kts
19-Jun-16 08:58 33.849469 -115.976734 269 23871ft 412kts
19-Jun-16 08:59 33.855825 -116.114977 269 23959ft 413kts
19-Jun-16 09:00 33.862102 -116.253207 269 23991ft 413kts
19-Jun-16 09:01 33.868192 -116.391197 269 22433ft 407kts
19-Jun-16 09:02 33.874443 -116.524842 270 19431ft 391kts
19-Jun-16 09:03 33.880662 -116.653023 270 16436ft 375kts
19-Jun-16 09:04 33.886369 -116.775679 270 14086ft 359kts
19-Jun-16 09:05 33.891450 -116.887379 269 13489ft 305kts
19-Jun-16 09:06 33.895455 -116.979373 269 11664ft 262kts
19-Jun-16 09:07 33.899047 -117.066651 271 9842ft 258kts
19-Jun-16 09:08 33.921698 -117.145395 308 7984ft 248kts
19-Jun-16 09:09 33.968058 -117.204277 313 6325ft 239kts
19-Jun-16 09:10 34.015522 -117.260664 315 4679ft 238kts
19-Jun-16 09:11 34.059907 -117.313435 313 4233ft 224kts
19-Jun-16 09:12 34.097289 -117.371076 285 4207ft 226kts
19-Jun-16 09:13 34.082868 -117.445724 245 4072ft 212kts
19-Jun-16 09:14 34.060534 -117.492080 240 2431ft 138kts
19-Jun-16 09:15 34.054899 -117.536304 271 1476ft 126kts
19-Jun-16 09:16 34.054941 -117.580800 268 1016ft 131kts
19-Jun-16 09:17 34.054969 -117.604637 279 960ft 13kts
19-Jun-16 09:18 34.055960 -117.605714 325 960ft 0kts
19-Jun-16 09:19 34.057583 -117.607006 328 960ft 11kts
19-Jun-16 09:20 34.058335 -117.606821 43 960ft 0kts
19-Jun-16 09:21 34.057912 -117.602828 89 960ft 27kts
19-Jun-16 09:22 34.059201 -117.599812 48 960ft 3kts
19-Jun-16 09:23 34.060285 -117.599620 359 960ft 0kts
19-Jun-16 09:24 34.060285 -117.599620 359 960ft 0kts
19-Jun-16 09:25 34.060286 -117.599620 359 960ft 0kts
19-Jun-16 09:26 34.060286 -117.599620 359 960ft 0kts
19-Jun-16 09:27 34.060286 -117.599620 359 947ft 0kts

Navigation Log

Ident Type
Flight plan parsing failed, navigation log unavailable